LGAL

Details ICAO LGAL (AXD)
Name Alexandroupolis Dimokritos
Region Greece
Timezone Europe/Athens (UTC+2.0)
Plans Departing 45
Arriving 43
Stats Elevation 24 ft / 7 m (AMSL)
Location 40.855869° 25.956264°
Runways 1
Magnetic Variation 5.062° E
Sunrise 2017-12-14 05:34:11 UTC / 2017-12-14 07:34:11 Local
Sunset 2017-12-14 14:50:15 UTC / 2017-12-14 16:50:15 Local
Advertisement - Login to hide

Runways

ID Width Length Bearing (true) Bearing (mag) Surface Threshold Offset Overrun Length
07 148 ft / 45 m 8,403 ft / 2,561 m 72.93° 67.87° Asphalt 0 ft / 0 m 200 ft / 61 m
25 148 ft / 45 m 8,403 ft / 2,561 m 252.95° 247.89° Asphalt 0 ft / 0 m 200 ft / 61 m

Map

Weather


0- 5 10 15 20 25 30 35+ Temperature / ° C

Clouds and Precipitation
Forecast for 2017-12-14 06:00 UTC. Updated 2 hours ago

Ground ~20,000 ft ~40,000 ft Winds

METAR

LGAL 140620Z 25006KT 9999 FEW025 13/12 Q1012

TAF

Not found

Frequencies

Tower 123.80 MHz ALEXANDROUPOLIS TWR
Approach 123.80 MHz ALEXANDROUPOLIS APP
Warning: Do not use this data for real-world aviation or navigation. No guarantee of current accuracy is given.